Delmar, South Carolina
Current Conditions -  °F | °C
As of 8:21 AM on Sunday 23 Nov 2014 (Local Time) from KCAE Reporting Station
Light Rain Light Rain  
Wind Chill: 53°   Ceiling: 6000
Heat Index: 53°   Visibility: 3mi
Dew Point: 51°   Wind: 8mph
Humidity: 93%   Direction: 70°ENE
Pressure: 30.16"   Gusts: NA
Location:  33.8822°N, 81.433°W
Report Text: KCAE 231321Z 07007KT 3SM -RA BR BKN060 OVC085 12/11 A3016 RMK AO2 P0002 T01170106
Loading
Personal Weather Stations






























Interactive Weather Map New forecast layout! Learn more

10-Day Weather Forecast

Advertisements
Track Severe Weather on mobile